createdAt,value
2018-02-16T00:00:50.864Z,92.20
2018-02-16T00:03:19.992Z,92.20
2018-02-16T00:05:50.065Z,92.20
2018-02-16T00:08:17.832Z,92.20
2018-02-16T00:10:45.499Z,92.20
2018-02-16T00:13:14.727Z,92.20
2018-02-16T00:15:43.118Z,92.20
2018-02-16T00:18:11.530Z,92.20
2018-02-16T00:20:39.527Z,92.20
2018-02-16T00:23:07.161Z,92.20
2018-02-16T00:25:34.791Z,92.20
2018-02-16T00:28:02.461Z,92.20
2018-02-16T00:30:30.068Z,92.20
2018-02-16T00:32:58.645Z,92.20
2018-02-16T00:35:26.415Z,92.20
2018-02-16T00:37:54.550Z,92.20
2018-02-16T00:40:22.190Z,92.20
2018-02-16T00:42:49.874Z,92.20
2018-02-16T00:45:17.537Z,92.20
2018-02-16T00:47:46.505Z,92.20
2018-02-16T00:50:14.986Z,92.20
2018-02-16T00:52:43.448Z,92.70
2018-02-16T00:55:11.877Z,92.70
2018-02-16T00:57:39.531Z,92.40
2018-02-16T01:00:07.823Z,92.20
2018-02-16T01:02:36.109Z,92.20
2018-02-16T01:05:05.171Z,92.30
2018-02-16T01:07:34.023Z,92.20
2018-02-16T01:10:04.086Z,92.30
2018-02-16T01:12:32.193Z,92.30
2018-02-16T01:14:59.807Z,92.30
2018-02-16T01:17:27.827Z,92.40
2018-02-16T01:19:56.985Z,92.40
2018-02-16T01:22:30.606Z,92.50
2018-02-16T01:24:58.305Z,92.50
2018-02-16T01:27:26.269Z,92.30
2018-02-16T01:29:53.888Z,92.20
2018-02-16T01:32:23.948Z,92.20
2018-02-16T01:34:51.892Z,92.30
2018-02-16T01:37:20.408Z,92.20
2018-02-16T01:39:48.083Z,92.20
2018-02-16T01:42:16.973Z,92.20
2018-02-16T01:44:45.813Z,92.30
2018-02-16T01:47:15.564Z,92.20
2018-02-16T01:49:54.997Z,92.20
2018-02-16T01:52:22.611Z,92.20
2018-02-16T01:54:50.827Z,92.20
2018-02-16T01:57:18.828Z,92.40
2018-02-16T01:59:46.460Z,92.20
2018-02-16T02:02:14.105Z,92.20
2018-02-16T02:04:41.758Z,92.20
2018-02-16T02:07:09.442Z,92.20
2018-02-16T02:09:38.383Z,92.20
2018-02-16T02:12:05.998Z,92.20
2018-02-16T02:14:34.147Z,92.20
2018-02-16T02:17:01.789Z,92.20
2018-02-16T02:19:29.400Z,92.20
2018-02-16T02:21:57.016Z,92.30
2018-02-16T02:24:24.677Z,92.30
2018-02-16T02:26:52.853Z,92.30
2018-02-16T02:29:21.363Z,92.50
2018-02-16T02:31:49.013Z,92.50
2018-02-16T02:34:17.629Z,92.30
2018-02-16T02:36:45.241Z,92.20
2018-02-16T02:39:12.862Z,92.20
2018-02-16T02:41:40.472Z,92.20
2018-02-16T02:44:08.106Z,92.20
2018-02-16T02:46:35.743Z,92.20
2018-02-16T02:49:04.513Z,92.20
2018-02-16T02:51:32.174Z,91.90
2018-02-16T02:53:59.968Z,91.90
2018-02-16T02:56:27.616Z,92.00
2018-02-16T02:58:55.991Z,92.00
2018-02-16T03:01:23.597Z,92.20
2018-02-16T03:03:52.561Z,92.20
2018-02-16T03:06:20.208Z,92.20
2018-02-16T03:08:48.652Z,92.20
2018-02-16T03:11:17.070Z,92.20
2018-02-16T03:13:44.736Z,92.20
2018-02-16T03:16:12.903Z,92.20
2018-02-16T03:18:40.656Z,92.20
2018-02-16T03:21:08.333Z,92.20
2018-02-16T03:23:36.095Z,92.20
2018-02-16T03:26:03.722Z,92.20
2018-02-16T03:28:32.133Z,92.20
2018-02-16T03:30:59.795Z,92.20
2018-02-16T03:33:27.428Z,92.20
2018-02-16T03:35:55.933Z,92.50
2018-02-16T03:38:23.551Z,92.50
2018-02-16T03:40:52.397Z,92.20
2018-02-16T03:43:20.142Z,92.30
2018-02-16T03:45:47.810Z,92.30
2018-02-16T03:48:15.767Z,92.30
2018-02-16T03:50:43.499Z,92.30
2018-02-16T03:53:11.981Z,92.50
2018-02-16T03:55:40.344Z,92.30
2018-02-16T03:58:08.071Z,92.30
2018-02-16T04:00:35.732Z,92.30
2018-02-16T04:03:03.324Z,92.30
2018-02-16T04:05:30.958Z,92.30
2018-02-16T04:07:58.560Z,92.30
2018-02-16T04:10:26.227Z,92.30
2018-02-16T04:12:54.713Z,92.30
2018-02-16T04:15:23.377Z,92.10
2018-02-16T04:17:51.068Z,92.10
2018-02-16T04:20:18.738Z,92.30
2018-02-16T04:22:46.391Z,92.30
2018-02-16T04:25:14.086Z,92.30
2018-02-16T04:27:41.708Z,92.40
2018-02-16T04:30:10.115Z,92.30
2018-02-16T04:32:37.740Z,92.30
2018-02-16T04:35:08.027Z,92.30
2018-02-16T04:37:35.659Z,92.30
2018-02-16T04:40:03.288Z,92.30
2018-02-16T04:42:31.700Z,92.60
2018-02-16T04:44:59.293Z,92.60
2018-02-16T04:47:27.124Z,92.40
2018-02-16T04:49:54.785Z,92.40
2018-02-16T04:52:22.437Z,92.30
2018-02-16T04:54:50.045Z,92.60
2018-02-16T04:57:17.700Z,92.90
2018-02-16T04:59:45.316Z,92.90
2018-02-16T05:02:12.990Z,92.80
2018-02-16T05:04:40.646Z,92.70
2018-02-16T05:07:08.247Z,92.70
2018-02-16T05:09:35.962Z,92.70
2018-02-16T05:12:05.007Z,92.70
2018-02-16T05:14:32.770Z,92.80
2018-02-16T05:17:00.461Z,92.80
2018-02-16T05:19:28.895Z,92.80
2018-02-16T05:21:56.579Z,92.80
2018-02-16T05:24:24.349Z,92.90
2018-02-16T05:26:52.061Z,92.70
2018-02-16T05:29:19.670Z,93.00
2018-02-16T05:31:47.379Z,92.70
2018-02-16T05:34:16.127Z,92.70
2018-02-16T05:36:44.546Z,92.40
2018-02-16T05:39:12.199Z,92.40
2018-02-16T05:41:39.815Z,92.40
2018-02-16T05:44:07.436Z,92.40
2018-02-16T05:46:35.080Z,92.40
2018-02-16T05:49:02.706Z,92.60
2018-02-16T05:51:30.314Z,92.50
2018-02-16T05:53:57.942Z,92.60
2018-02-16T05:56:26.325Z,92.70
2018-02-16T05:58:54.731Z,92.60
2018-02-16T06:01:22.392Z,92.60
2018-02-16T06:03:51.780Z,92.70
2018-02-16T06:06:19.426Z,92.80
2018-02-16T06:08:48.841Z,92.90
2018-02-16T06:11:16.407Z,92.80
2018-02-16T06:13:44.109Z,92.80
2018-02-16T06:16:11.732Z,92.70
2018-02-16T06:18:39.390Z,92.60
2018-02-16T06:21:06.983Z,92.50
2018-02-16T06:23:34.594Z,92.60
2018-02-16T06:26:02.240Z,92.60
2018-02-16T06:28:30.639Z,92.50
2018-02-16T06:30:59.128Z,92.60
2018-02-16T06:33:26.750Z,92.50
2018-02-16T06:35:54.382Z,92.50
2018-02-16T06:38:22.186Z,92.50
2018-02-16T06:40:50.592Z,92.30
2018-02-16T06:43:18.376Z,92.60
2018-02-16T06:45:46.592Z,92.50
2018-02-16T06:48:14.224Z,92.50
2018-02-16T06:50:41.931Z,92.50
2018-02-16T06:53:10.363Z,92.60
2018-02-16T06:55:38.319Z,92.60
2018-02-16T06:58:05.981Z,92.60
2018-02-16T07:00:33.638Z,92.60
2018-02-16T07:03:01.352Z,92.60
2018-02-16T07:05:29.021Z,92.60
2018-02-16T07:07:56.699Z,92.60
2018-02-16T07:10:25.125Z,92.70
2018-02-16T07:12:52.893Z,92.60
2018-02-16T07:15:20.567Z,92.60
2018-02-16T07:17:48.254Z,93.00
2018-02-16T07:20:15.857Z,92.60
2018-02-16T07:22:43.505Z,92.60
2018-02-16T07:25:11.910Z,92.60
2018-02-16T07:27:40.782Z,92.60
2018-02-16T07:30:08.412Z,92.70
2018-02-16T07:32:36.835Z,92.70
2018-02-16T07:35:04.491Z,92.70
2018-02-16T07:37:32.153Z,92.70
2018-02-16T07:40:01.030Z,92.70
2018-02-16T07:42:28.644Z,92.70
2018-02-16T07:44:56.245Z,92.70
2018-02-16T07:47:24.021Z,92.70
2018-02-16T07:49:51.625Z,92.80
2018-02-16T07:52:19.251Z,92.60
2018-02-16T07:54:46.838Z,92.80
2018-02-16T07:57:14.524Z,92.80
2018-02-16T07:59:42.165Z,92.80
2018-02-16T08:02:09.812Z,92.60
2018-02-16T08:04:37.445Z,92.50
2018-02-16T08:07:05.073Z,92.60
2018-02-16T08:09:33.469Z,92.50
2018-02-16T08:12:01.116Z,92.50
2018-02-16T08:14:29.539Z,92.20
2018-02-16T08:16:57.208Z,92.20
2018-02-16T08:19:25.596Z,92.10
2018-02-16T08:21:53.224Z,92.10
2018-02-16T08:24:20.961Z,92.00
2018-02-16T08:26:49.368Z,91.80
2018-02-16T08:29:17.009Z,91.80
2018-02-16T08:31:44.693Z,91.70
2018-02-16T08:36:46.602Z,91.60
2018-02-16T08:39:14.283Z,91.70
2018-02-16T08:41:41.953Z,91.70
2018-02-16T08:44:10.321Z,91.40
2018-02-16T08:46:37.998Z,91.40
2018-02-16T08:49:06.368Z,91.60
2018-02-16T08:51:34.007Z,91.60
2018-02-16T08:54:01.631Z,91.20
2018-02-16T08:56:29.282Z,91.20
2018-02-16T08:58:56.902Z,91.10
2018-02-16T09:01:24.617Z,91.00
2018-02-16T09:03:52.238Z,90.80
2018-02-16T09:06:20.716Z,90.40
2018-02-16T09:08:49.121Z,90.40
2018-02-16T09:11:18.169Z,90.40
2018-02-16T09:13:45.855Z,89.90
2018-02-16T09:16:14.175Z,89.70
2018-02-16T09:18:41.831Z,88.70
2018-02-16T09:21:09.459Z,87.10
2018-02-16T09:23:37.922Z,86.20
2018-02-16T09:26:05.631Z,86.20
2018-02-16T09:28:33.283Z,87.10
2018-02-16T09:31:00.982Z,85.80
2018-02-16T09:33:28.647Z,86.00
2018-02-16T09:35:59.047Z,85.30
2018-02-16T09:38:26.686Z,85.90
2018-02-16T09:40:55.134Z,84.60
2018-02-16T09:43:22.846Z,84.60
2018-02-16T09:45:51.371Z,83.90
2018-02-16T09:48:19.064Z,83.20
2018-02-16T09:50:47.453Z,82.20
2018-02-16T09:53:15.086Z,82.10
2018-02-16T09:55:43.525Z,82.40
2018-02-16T09:58:11.194Z,81.90
2018-02-16T10:00:39.701Z,81.20
2018-02-16T10:03:08.104Z,80.90
2018-02-16T10:05:35.734Z,80.80
2018-02-16T10:08:04.197Z,82.60
2018-02-16T10:10:31.844Z,82.60
2018-02-16T10:12:59.546Z,82.50
2018-02-16T10:15:27.201Z,82.80
2018-02-16T10:17:55.598Z,82.40
2018-02-16T10:20:23.257Z,82.30
2018-02-16T10:22:50.861Z,83.00
2018-02-16T10:25:18.549Z,83.70
2018-02-16T10:27:46.951Z,84.50
2018-02-16T10:30:15.395Z,85.00
2018-02-16T10:32:43.049Z,84.90
2018-02-16T10:35:10.673Z,85.00
2018-02-16T10:37:38.336Z,85.10
2018-02-16T10:40:06.452Z,85.60
2018-02-16T10:42:34.085Z,86.10
2018-02-16T10:45:01.728Z,86.40
2018-02-16T10:47:29.388Z,87.20
2018-02-16T10:49:57.672Z,87.40
2018-02-16T10:52:25.335Z,87.50
2018-02-16T10:54:52.988Z,87.60
2018-02-16T10:57:21.650Z,87.80
2018-02-16T10:59:50.026Z,87.80
2018-02-16T11:02:23.892Z,87.30
2018-02-16T11:04:57.317Z,87.20
2018-02-16T11:07:31.280Z,87.70
2018-02-16T11:09:58.936Z,86.80
2018-02-16T11:12:26.737Z,87.10
2018-02-16T11:14:54.380Z,86.60
2018-02-16T11:17:22.073Z,87.90
2018-02-16T11:19:49.738Z,87.50
2018-02-16T11:22:18.129Z,87.30
2018-02-16T11:24:46.550Z,86.30
2018-02-16T11:27:14.182Z,86.30
2018-02-16T11:29:41.787Z,86.00
2018-02-16T11:32:09.457Z,86.20
2018-02-16T11:34:37.069Z,85.90
2018-02-16T11:37:04.971Z,84.90
2018-02-16T11:39:32.706Z,85.20
2018-02-16T11:42:00.346Z,85.70
2018-02-16T11:44:28.962Z,83.20
2018-02-16T11:46:56.649Z,83.20
2018-02-16T11:49:24.376Z,83.50
2018-02-16T11:51:51.968Z,83.00
2018-02-16T11:54:19.641Z,81.80
2018-02-16T11:56:47.259Z,81.00
2018-02-16T11:59:14.897Z,81.20
2018-02-16T12:01:43.269Z,81.40
2018-02-16T12:04:11.693Z,81.50
2018-02-16T12:06:39.311Z,81.50
2018-02-16T12:09:07.816Z,81.70
2018-02-16T12:11:36.244Z,81.90
2018-02-16T12:14:03.854Z,81.90
2018-02-16T12:16:32.282Z,82.80
2018-02-16T12:18:59.915Z,82.80
2018-02-16T12:21:27.622Z,82.80
2018-02-16T12:23:55.235Z,83.20
2018-02-16T12:26:22.930Z,83.20
2018-02-16T12:28:50.576Z,83.80
2018-02-16T12:31:18.274Z,84.20
2018-02-16T12:33:46.303Z,84.60
2018-02-16T12:36:14.005Z,85.20
2018-02-16T12:38:41.751Z,85.50
2018-02-16T12:41:09.351Z,85.40
2018-02-16T12:43:37.004Z,85.30
2018-02-16T12:46:05.399Z,86.30
2018-02-16T12:48:33.806Z,85.10
2018-02-16T12:51:01.562Z,85.10
2018-02-16T12:53:29.231Z,85.40
2018-02-16T12:55:56.859Z,85.10
2018-02-16T12:58:25.269Z,85.70
2018-02-16T13:00:55.448Z,85.70
2018-02-16T13:03:24.734Z,85.50
2018-02-16T13:05:52.393Z,85.60
2018-02-16T13:08:20.067Z,85.60
2018-02-16T13:10:47.704Z,86.20
2018-02-16T13:13:15.370Z,86.30
2018-02-16T13:15:42.998Z,86.70
2018-02-16T13:18:10.683Z,87.00
2018-02-16T13:20:39.228Z,88.00
2018-02-16T13:23:06.868Z,88.00
2018-02-16T13:25:35.300Z,88.20
2018-02-16T13:28:02.919Z,88.20
2018-02-16T13:30:30.740Z,88.20
2018-02-16T13:32:58.397Z,88.50
2018-02-16T13:35:26.053Z,88.70
2018-02-16T13:37:53.719Z,89.10
2018-02-16T13:40:21.436Z,88.90
2018-02-16T13:42:49.056Z,89.10
2018-02-16T13:45:16.988Z,89.10
2018-02-16T13:47:44.906Z,88.40
2018-02-16T13:50:12.679Z,88.20
2018-02-16T13:52:41.143Z,88.30
2018-02-16T13:55:08.815Z,88.30
2018-02-16T13:57:36.505Z,88.30
2018-02-16T14:00:05.257Z,87.80
2018-02-16T14:02:32.939Z,87.40
2018-02-16T14:05:00.633Z,87.30
2018-02-16T14:07:28.399Z,87.70
2018-02-16T14:09:56.023Z,87.70
2018-02-16T14:12:24.395Z,87.80
2018-02-16T14:14:52.802Z,87.60
2018-02-16T14:17:20.524Z,87.60
2018-02-16T14:19:49.034Z,88.00
2018-02-16T14:22:17.471Z,87.90
2018-02-16T14:24:45.165Z,87.90
2018-02-16T14:27:12.920Z,88.40
2018-02-16T14:29:40.687Z,88.20
2018-02-16T14:32:08.304Z,88.40
2018-02-16T14:34:35.915Z,88.70
2018-02-16T14:37:04.333Z,89.00
2018-02-16T14:39:31.952Z,89.00
2018-02-16T14:42:00.472Z,88.80
2018-02-16T14:44:28.128Z,88.80
2018-02-16T14:46:55.788Z,88.60
2018-02-16T14:49:23.560Z,88.30
2018-02-16T14:51:51.229Z,87.70
2018-02-16T14:54:18.922Z,88.40
2018-02-16T14:56:46.523Z,88.50
2018-02-16T14:59:14.270Z,88.60
2018-02-16T15:01:42.656Z,88.60
2018-02-16T15:04:11.079Z,88.60
2018-02-16T15:06:38.733Z,88.60
2018-02-16T15:09:06.422Z,87.80
2018-02-16T15:11:34.064Z,88.40
2018-02-16T15:14:01.743Z,88.50
2018-02-16T15:16:30.226Z,88.50
2018-02-16T15:18:57.946Z,88.50
2018-02-16T15:21:25.601Z,88.50
2018-02-16T15:23:54.380Z,88.40
2018-02-16T15:26:22.054Z,88.50
2018-02-16T15:28:49.728Z,88.40
2018-02-16T15:31:17.353Z,88.40
2018-02-16T15:33:45.830Z,88.70
2018-02-16T15:36:14.253Z,89.20
2018-02-16T15:38:42.002Z,89.10
2018-02-16T15:41:09.797Z,89.50
2018-02-16T15:43:37.757Z,89.50
2018-02-16T15:46:05.462Z,89.60
2018-02-16T15:48:33.884Z,90.50
2018-02-16T15:51:01.539Z,90.50
2018-02-16T15:53:29.269Z,90.60
2018-02-16T15:55:57.644Z,90.70
2018-02-16T15:58:26.104Z,90.90
2018-02-16T16:00:53.734Z,90.80
2018-02-16T16:03:21.387Z,90.90
2018-02-16T16:05:49.031Z,90.90
2018-02-16T16:08:16.916Z,91.00
2018-02-16T16:10:44.578Z,91.00
2018-02-16T16:13:12.193Z,91.00
2018-02-16T16:15:40.682Z,91.10
2018-02-16T16:18:09.134Z,91.00
2018-02-16T16:20:37.066Z,91.00
2018-02-16T16:23:05.147Z,91.00
2018-02-16T16:25:32.875Z,91.10
2018-02-16T16:28:01.304Z,91.30
2018-02-16T16:30:29.052Z,91.30
2018-02-16T16:32:56.739Z,91.30
2018-02-16T16:35:24.417Z,91.50
2018-02-16T16:37:52.889Z,91.40
2018-02-16T16:40:20.828Z,91.30
2018-02-16T16:42:48.497Z,91.60
2018-02-16T16:45:16.239Z,91.60
2018-02-16T16:47:43.934Z,91.60
2018-02-16T16:50:11.557Z,91.70
2018-02-16T16:52:39.260Z,91.70
2018-02-16T16:55:07.014Z,91.80
2018-02-16T16:57:34.625Z,91.80
2018-02-16T17:00:02.315Z,91.70
2018-02-16T17:02:30.121Z,91.80
2018-02-16T17:04:57.790Z,91.70
2018-02-16T17:07:26.410Z,91.90
2018-02-16T17:09:54.394Z,91.70
2018-02-16T17:12:22.225Z,91.70
2018-02-16T17:14:50.136Z,91.50
2018-02-16T17:17:17.793Z,91.60
2018-02-16T17:19:45.490Z,91.60
2018-02-16T17:22:13.184Z,91.70
2018-02-16T17:24:40.966Z,91.70
2018-02-16T17:27:08.724Z,91.70
2018-02-16T17:29:36.413Z,91.80
2018-02-16T17:32:04.100Z,92.00
2018-02-16T17:34:31.713Z,92.00
2018-02-16T17:36:59.380Z,92.00
2018-02-16T17:39:27.685Z,92.10
2018-02-16T17:41:55.536Z,92.10
2018-02-16T17:44:23.388Z,92.00
2018-02-16T17:46:51.048Z,92.10
2018-02-16T17:49:18.770Z,92.20
2018-02-16T17:51:47.420Z,92.60
2018-02-16T17:54:15.084Z,92.20
2018-02-16T17:56:42.806Z,92.20
2018-02-16T17:59:10.473Z,92.10
2018-02-16T18:01:38.124Z,92.10
2018-02-16T18:04:06.008Z,92.30
2018-02-16T18:06:33.667Z,92.20
2018-02-16T18:09:01.445Z,92.40
2018-02-16T18:11:29.306Z,92.10
2018-02-16T18:13:56.956Z,92.00
2018-02-16T18:16:24.576Z,92.30
2018-02-16T18:18:52.263Z,92.20
2018-02-16T18:21:20.048Z,92.70
2018-02-16T18:23:47.774Z,92.20
2018-02-16T18:26:16.199Z,92.40
2018-02-16T18:28:44.290Z,92.40
2018-02-16T18:31:11.988Z,92.50
2018-02-16T18:33:40.391Z,92.70
2018-02-16T18:36:08.452Z,92.70
2018-02-16T18:38:36.086Z,92.90
2018-02-16T18:41:04.525Z,93.80
2018-02-16T18:43:32.254Z,93.50
2018-02-16T18:46:00.654Z,93.70
2018-02-16T18:48:28.399Z,93.80
2018-02-16T18:50:56.826Z,93.30
2018-02-16T18:53:24.549Z,93.30
2018-02-16T18:55:52.250Z,93.60
2018-02-16T18:58:20.056Z,93.70
2018-02-16T19:00:47.776Z,93.70
2018-02-16T19:03:16.340Z,93.10
2018-02-16T19:05:44.069Z,93.10
2018-02-16T19:08:11.784Z,93.40
2018-02-16T19:10:39.546Z,93.00
2018-02-16T19:13:07.258Z,93.00
2018-02-16T19:15:35.741Z,92.70
2018-02-16T19:18:04.199Z,92.70
2018-02-16T19:20:31.954Z,92.70
2018-02-16T19:22:59.649Z,93.00
2018-02-16T19:25:27.325Z,93.40
2018-02-16T19:27:55.133Z,93.70
2018-02-16T19:30:22.938Z,93.90
2018-02-16T19:32:51.400Z,94.50
2018-02-16T19:35:19.887Z,94.50
2018-02-16T19:37:48.331Z,94.40
2018-02-16T19:40:15.992Z,94.40
2018-02-16T19:42:43.637Z,94.40
2018-02-16T19:45:11.480Z,94.40
2018-02-16T19:47:39.168Z,94.30
2018-02-16T19:50:06.921Z,94.20
2018-02-16T19:52:34.678Z,94.30
2018-02-16T19:55:02.343Z,94.10
2018-02-16T19:57:30.093Z,94.00
2018-02-16T19:59:57.771Z,94.00
2018-02-16T20:02:25.576Z,94.00
2018-02-16T20:04:53.283Z,94.00
2018-02-16T20:07:21.042Z,94.10
2018-02-16T20:09:48.725Z,94.20
2018-02-16T20:12:16.584Z,94.10
2018-02-16T20:14:44.268Z,94.10
2018-02-16T20:17:12.074Z,94.50
2018-02-16T20:19:40.567Z,94.10
2018-02-16T20:22:09.080Z,94.10
2018-02-16T20:24:36.787Z,94.10
2018-02-16T20:27:04.571Z,94.00
2018-02-16T20:29:33.060Z,94.00
2018-02-16T20:32:01.652Z,93.90
2018-02-16T20:34:29.377Z,93.80
2018-02-16T20:36:57.128Z,93.60
2018-02-16T20:39:25.719Z,93.50
2018-02-16T20:41:53.404Z,93.50
2018-02-16T20:44:21.208Z,93.40
2018-02-16T20:46:48.898Z,93.00
2018-02-16T20:49:16.730Z,93.20
2018-02-16T20:51:44.665Z,93.00
2018-02-16T20:54:13.188Z,93.20
2018-02-16T20:56:41.241Z,93.20
2018-02-16T20:59:09.009Z,93.00
2018-02-16T21:01:36.952Z,93.00
2018-02-16T21:04:05.722Z,92.90
2018-02-16T21:06:34.753Z,92.90
2018-02-16T21:09:02.655Z,92.80
2018-02-16T21:11:30.343Z,92.80
2018-02-16T21:13:58.094Z,92.80
2018-02-16T21:16:25.948Z,92.80
2018-02-16T21:18:53.932Z,92.80
2018-02-16T21:21:21.730Z,92.80
2018-02-16T21:23:50.207Z,92.80
2018-02-16T21:26:17.971Z,92.80
2018-02-16T21:28:46.389Z,92.80
2018-02-16T21:31:14.249Z,92.70
2018-02-16T21:33:43.219Z,92.70
2018-02-16T21:36:10.892Z,93.00
2018-02-16T21:38:38.550Z,92.70
2018-02-16T21:41:06.248Z,92.70
2018-02-16T21:43:34.067Z,92.70
2018-02-16T21:46:01.829Z,92.60
2018-02-16T21:48:29.568Z,92.60
2018-02-16T21:50:57.298Z,92.60
2018-02-16T21:53:25.019Z,92.90
2018-02-16T21:55:52.671Z,92.60
2018-02-16T21:58:21.173Z,92.60
2018-02-16T22:00:48.884Z,92.60
2018-02-16T22:03:16.578Z,92.80
2018-02-16T22:05:44.236Z,93.00
2018-02-16T22:08:12.216Z,93.10
2018-02-16T22:10:40.588Z,93.40
2018-02-16T22:13:08.975Z,93.40
2018-02-16T22:15:36.648Z,93.40
2018-02-16T22:18:04.537Z,92.60
2018-02-16T22:20:32.564Z,92.60
2018-02-16T22:23:00.985Z,92.60
2018-02-16T22:25:28.645Z,92.50
2018-02-16T22:27:56.355Z,92.60
2018-02-16T22:30:24.868Z,93.20
2018-02-16T22:32:52.497Z,92.90
2018-02-16T22:35:21.186Z,92.90
2018-02-16T22:37:48.879Z,92.90
2018-02-16T22:40:16.585Z,93.10
2018-02-16T22:42:44.297Z,92.50
2018-02-16T22:45:11.936Z,92.70
2018-02-16T22:47:40.821Z,93.30
2018-02-16T22:50:09.270Z,93.10
2018-02-16T22:52:37.507Z,93.10
2018-02-16T22:55:05.259Z,93.20
2018-02-16T22:57:32.956Z,93.20
2018-02-16T23:00:00.715Z,93.20
2018-02-16T23:02:28.385Z,93.30
2018-02-16T23:04:56.150Z,93.20
2018-02-16T23:07:23.877Z,93.30
2018-02-16T23:09:51.560Z,93.50
2018-02-16T23:12:19.225Z,93.10
2018-02-16T23:14:46.883Z,93.20
2018-02-16T23:17:14.896Z,93.50
2018-02-16T23:19:42.741Z,93.40
2018-02-16T23:22:10.660Z,93.30
2018-02-16T23:24:38.575Z,93.10
2018-02-16T23:27:06.222Z,93.20
2018-02-16T23:29:34.022Z,92.90
2018-02-16T23:32:01.693Z,93.00
2018-02-16T23:34:29.321Z,93.10
2018-02-16T23:36:57.000Z,93.00
2018-02-16T23:39:24.657Z,93.20
2018-02-16T23:41:52.345Z,93.40
2018-02-16T23:44:20.707Z,93.20
2018-02-16T23:46:48.330Z,93.20
2018-02-16T23:49:16.386Z,93.20
2018-02-16T23:51:44.105Z,93.00
2018-02-16T23:54:11.745Z,93.00
2018-02-16T23:56:39.410Z,93.00
2018-02-16T23:59:07.042Z,93.00
